createdAt,value
2018-02-17T00:01:36.399Z,2.30
2018-02-17T00:04:04.108Z,2.30
2018-02-17T00:06:32.104Z,2.30
2018-02-17T00:08:59.679Z,2.30
2018-02-17T00:11:27.368Z,2.40
2018-02-17T00:13:55.307Z,2.50
2018-02-17T00:16:23.816Z,2.30
2018-02-17T00:18:51.311Z,2.30
2018-02-17T00:21:19.610Z,2.40
2018-02-17T00:23:47.110Z,2.40
2018-02-17T00:26:14.643Z,2.30
2018-02-17T00:28:42.209Z,2.30
2018-02-17T00:31:09.709Z,2.20
2018-02-17T00:33:37.218Z,2.20
2018-02-17T00:36:05.508Z,2.30
2018-02-17T00:38:33.778Z,2.20
2018-02-17T00:41:02.055Z,2.30
2018-02-17T00:43:30.333Z,2.20
2018-02-17T00:45:57.877Z,2.20
2018-02-17T00:48:26.183Z,2.20
2018-02-17T00:50:53.699Z,2.20
2018-02-17T00:53:21.234Z,2.20
2018-02-17T00:55:49.512Z,2.20
2018-02-17T00:58:17.826Z,2.20
2018-02-17T01:00:45.351Z,2.20
2018-02-17T01:03:13.630Z,2.10
2018-02-17T01:05:41.939Z,2.10
2018-02-17T01:08:09.451Z,2.10
2018-02-17T01:10:36.949Z,2.10
2018-02-17T01:13:05.227Z,2.10
2018-02-17T01:15:33.505Z,2.10
2018-02-17T01:18:01.783Z,2.00
2018-02-17T01:20:30.234Z,2.00
2018-02-17T01:22:57.749Z,2.10
2018-02-17T01:25:26.014Z,2.20
2018-02-17T01:27:53.517Z,2.10
2018-02-17T01:30:21.079Z,2.20
2018-02-17T01:32:48.586Z,2.20
2018-02-17T01:35:16.098Z,2.30
2018-02-17T01:37:43.585Z,2.30
2018-02-17T01:40:13.228Z,2.40
2018-02-17T01:42:41.483Z,2.50
2018-02-17T01:45:09.002Z,2.60
2018-02-17T01:47:37.336Z,2.60
2018-02-17T01:50:06.608Z,2.60
2018-02-17T01:52:34.114Z,2.60
2018-02-17T01:55:01.614Z,2.60
2018-02-17T01:57:29.868Z,2.70
2018-02-17T01:59:57.410Z,2.70
2018-02-17T02:02:24.963Z,2.60
2018-02-17T02:04:52.472Z,2.70
2018-02-17T02:07:19.988Z,2.70
2018-02-17T02:09:47.484Z,2.60
2018-02-17T02:12:14.964Z,2.60
2018-02-17T02:14:43.264Z,2.60
2018-02-17T02:17:11.522Z,2.60
2018-02-17T02:19:39.788Z,2.70
2018-02-17T02:22:07.276Z,2.70
2018-02-17T02:24:35.566Z,2.80
2018-02-17T02:27:03.822Z,2.70
2018-02-17T02:29:31.325Z,2.70
2018-02-17T02:31:58.850Z,2.80
2018-02-17T02:34:26.385Z,2.80
2018-02-17T02:36:53.884Z,2.70
2018-02-17T02:39:21.404Z,2.80
2018-02-17T02:41:48.921Z,2.90
2018-02-17T02:44:17.197Z,2.90
2018-02-17T02:46:44.726Z,2.90
2018-02-17T02:49:12.280Z,2.90
2018-02-17T02:51:39.804Z,3.00
2018-02-17T02:54:08.081Z,3.00
2018-02-17T02:56:37.007Z,3.00
2018-02-17T02:59:04.529Z,3.00
2018-02-17T03:01:32.089Z,3.00
2018-02-17T03:03:59.591Z,3.00
2018-02-17T03:06:27.111Z,3.00
2018-02-17T03:08:54.609Z,3.10
2018-02-17T03:11:22.127Z,3.10
2018-02-17T03:13:49.630Z,3.10
2018-02-17T03:16:17.180Z,3.10
2018-02-17T03:18:45.460Z,3.20
2018-02-17T03:21:13.762Z,3.10
2018-02-17T03:23:41.247Z,3.10
2018-02-17T03:26:08.746Z,3.20
2018-02-17T03:28:36.249Z,3.20
2018-02-17T03:31:04.517Z,3.20
2018-02-17T03:33:32.033Z,3.20
2018-02-17T03:35:59.604Z,3.20
2018-02-17T03:38:27.131Z,3.20
2018-02-17T03:40:54.652Z,3.20
2018-02-17T03:43:22.136Z,3.20
2018-02-17T03:45:50.417Z,3.20
2018-02-17T03:48:18.678Z,3.20
2018-02-17T03:50:46.213Z,3.20
2018-02-17T03:53:13.718Z,3.20
2018-02-17T03:55:41.993Z,3.20
2018-02-17T03:58:10.257Z,3.20
2018-02-17T04:00:37.992Z,3.20
2018-02-17T04:03:06.326Z,3.20
2018-02-17T04:05:34.610Z,3.20
2018-02-17T04:08:02.896Z,3.20
2018-02-17T04:10:31.168Z,3.30
2018-02-17T04:12:59.455Z,3.30
2018-02-17T04:15:27.734Z,3.20
2018-02-17T04:17:56.038Z,3.30
2018-02-17T04:20:23.539Z,3.20
2018-02-17T04:22:51.069Z,3.30
2018-02-17T04:25:18.560Z,3.20
2018-02-17T04:27:46.514Z,3.20
2018-02-17T04:30:14.021Z,3.20
2018-02-17T04:32:41.546Z,3.20
2018-02-17T04:35:09.037Z,3.10
2018-02-17T04:37:36.565Z,3.10
2018-02-17T04:40:13.969Z,3.20
2018-02-17T04:42:51.392Z,3.20
2018-02-17T04:45:21.601Z,3.20
2018-02-17T04:48:04.889Z,3.20
2018-02-17T04:50:32.537Z,3.20
2018-02-17T04:53:04.008Z,3.20
2018-02-17T04:58:58.860Z,3.20
2018-02-17T05:01:32.959Z,3.20
2018-02-17T05:04:11.260Z,3.20
2018-02-17T05:06:53.637Z,3.20
2018-02-17T05:09:21.142Z,3.20
2018-02-17T05:11:49.399Z,3.20
2018-02-17T05:14:39.364Z,3.20
2018-02-17T05:17:09.837Z,3.20
2018-02-17T05:19:59.147Z,3.20
2018-02-17T05:22:29.072Z,3.20
2018-02-17T05:25:07.293Z,3.30
2018-02-17T05:27:40.294Z,3.30
2018-02-17T05:30:23.558Z,3.30
2018-02-17T05:32:51.059Z,3.30
2018-02-17T05:35:18.963Z,3.30
2018-02-17T05:37:47.214Z,3.30
2018-02-17T05:40:24.613Z,3.30
2018-02-17T05:42:52.098Z,3.40
2018-02-17T05:45:20.375Z,3.40
2018-02-17T05:48:03.530Z,3.40
2018-02-17T05:50:40.926Z,3.30
2018-02-17T05:53:08.438Z,3.40
2018-02-17T05:55:36.721Z,3.40
2018-02-17T05:58:04.999Z,3.40
2018-02-17T06:00:34.587Z,3.40
2018-02-17T06:03:02.091Z,3.40
2018-02-17T06:05:29.652Z,3.40
2018-02-17T06:07:57.177Z,3.50
2018-02-17T06:10:24.704Z,3.50
2018-02-17T06:12:52.226Z,3.60
2018-02-17T06:15:20.510Z,3.60
2018-02-17T06:17:48.777Z,3.60
2018-02-17T06:20:17.065Z,3.60
2018-02-17T06:22:45.431Z,3.60
2018-02-17T06:25:12.942Z,3.60
2018-02-17T06:27:40.452Z,3.60
2018-02-17T06:30:07.983Z,3.60
2018-02-17T06:32:35.520Z,3.60
2018-02-17T06:35:03.044Z,3.60
2018-02-17T06:37:30.548Z,3.60
2018-02-17T06:39:58.057Z,3.70
2018-02-17T06:42:25.606Z,3.70
2018-02-17T06:44:53.115Z,3.70
2018-02-17T06:47:21.405Z,3.70
2018-02-17T06:49:49.689Z,3.80
2018-02-17T06:52:18.738Z,3.80
2018-02-17T06:54:46.277Z,3.70
2018-02-17T06:57:13.791Z,3.80
2018-02-17T06:59:41.281Z,3.80
2018-02-17T07:02:09.584Z,3.80
2018-02-17T07:04:37.143Z,3.80
2018-02-17T07:07:04.673Z,3.80
2018-02-17T07:09:32.948Z,3.90
2018-02-17T07:12:00.456Z,3.90
2018-02-17T07:14:27.969Z,4.00
2018-02-17T07:16:56.252Z,4.10
2018-02-17T07:19:23.763Z,4.00
2018-02-17T07:21:51.274Z,4.10
2018-02-17T07:24:18.812Z,4.10
2018-02-17T07:26:46.337Z,4.20
2018-02-17T07:29:13.862Z,4.20
2018-02-17T07:31:42.353Z,4.30
2018-02-17T07:34:10.721Z,4.20
2018-02-17T07:36:38.320Z,4.20
2018-02-17T07:39:06.623Z,4.30
2018-02-17T07:41:34.117Z,4.30
2018-02-17T07:44:01.647Z,4.30
2018-02-17T07:46:29.952Z,4.30
2018-02-17T07:48:57.452Z,4.40
2018-02-17T07:51:24.964Z,4.40
2018-02-17T07:53:52.840Z,4.50
2018-02-17T07:56:20.364Z,4.50
2018-02-17T07:58:48.676Z,4.50
2018-02-17T08:01:16.188Z,4.50
2018-02-17T08:03:43.685Z,4.50
2018-02-17T08:06:11.187Z,4.60
2018-02-17T08:08:38.806Z,4.60
2018-02-17T08:11:07.097Z,4.60
2018-02-17T08:13:35.367Z,4.70
2018-02-17T08:16:02.964Z,4.70
2018-02-17T08:18:31.433Z,4.70
2018-02-17T08:20:58.967Z,4.70
2018-02-17T08:23:27.268Z,4.90
2018-02-17T08:25:55.545Z,4.90
2018-02-17T08:28:23.833Z,4.90
2018-02-17T08:30:51.412Z,4.90
2018-02-17T08:33:20.288Z,5.00
2018-02-17T08:35:48.377Z,5.10
2018-02-17T08:38:15.885Z,5.10
2018-02-17T08:40:43.417Z,5.20
2018-02-17T08:43:10.895Z,5.20
2018-02-17T08:45:38.486Z,5.10
2018-02-17T08:48:06.286Z,5.10
2018-02-17T08:50:34.830Z,4.90
2018-02-17T08:53:03.162Z,4.90
2018-02-17T08:55:32.263Z,5.00
2018-02-17T08:57:59.866Z,5.00
2018-02-17T09:00:27.381Z,5.00
2018-02-17T09:02:55.734Z,5.10
2018-02-17T09:05:23.252Z,5.10
2018-02-17T09:07:50.777Z,5.20
2018-02-17T09:10:18.440Z,5.20
2018-02-17T09:12:46.005Z,5.30
2018-02-17T09:15:13.826Z,5.30
2018-02-17T09:17:41.409Z,5.40
2018-02-17T09:20:09.118Z,5.50
2018-02-17T09:22:36.648Z,5.60
2018-02-17T09:25:05.105Z,5.70
2018-02-17T09:27:32.690Z,5.70
2018-02-17T09:30:01.022Z,5.90
2018-02-17T09:32:30.029Z,6.00
2018-02-17T09:34:58.307Z,6.10
2018-02-17T09:37:26.577Z,6.20
2018-02-17T09:39:54.894Z,6.30
2018-02-17T09:42:22.381Z,6.30
2018-02-17T09:44:49.898Z,6.40
2018-02-17T09:47:17.413Z,6.50
2018-02-17T09:49:44.936Z,6.60
2018-02-17T09:52:12.458Z,6.60
2018-02-17T09:54:39.973Z,6.80
2018-02-17T09:57:07.499Z,6.90
2018-02-17T09:59:35.003Z,6.90
2018-02-17T10:02:02.534Z,6.90
2018-02-17T10:04:30.810Z,6.90
2018-02-17T10:06:59.093Z,6.90
2018-02-17T10:09:27.490Z,7.00
2018-02-17T10:11:55.121Z,7.00
2018-02-17T10:14:22.761Z,7.10
2018-02-17T10:16:51.282Z,7.10
2018-02-17T10:19:19.122Z,7.10
2018-02-17T10:21:47.445Z,7.30
2018-02-17T10:24:15.740Z,7.40
2018-02-17T10:26:43.605Z,7.30
2018-02-17T10:29:12.065Z,7.30
2018-02-17T10:31:39.853Z,7.30
2018-02-17T10:34:08.335Z,7.20
2018-02-17T10:36:36.793Z,7.10
2018-02-17T10:39:04.303Z,7.10
2018-02-17T10:41:32.573Z,7.20
2018-02-17T10:44:03.051Z,7.20
2018-02-17T10:46:34.192Z,7.20
2018-02-17T10:49:01.770Z,7.30
2018-02-17T10:51:29.305Z,7.40
2018-02-17T10:53:57.776Z,7.50
2018-02-17T10:56:25.313Z,7.60
2018-02-17T10:58:54.667Z,7.80
2018-02-17T11:01:22.442Z,7.80
2018-02-17T11:03:49.981Z,7.90
2018-02-17T11:06:19.048Z,7.90
2018-02-17T11:08:47.074Z,7.90
2018-02-17T11:11:14.738Z,8.10
2018-02-17T11:13:42.547Z,8.10
2018-02-17T11:16:11.260Z,8.20
2018-02-17T11:18:40.141Z,8.20
2018-02-17T11:21:07.739Z,8.30
2018-02-17T11:23:35.320Z,8.30
2018-02-17T11:26:02.885Z,8.30
2018-02-17T11:28:30.378Z,8.30
2018-02-17T11:30:57.950Z,8.30
2018-02-17T11:33:25.571Z,8.30
2018-02-17T11:35:53.085Z,8.30
2018-02-17T11:38:21.371Z,8.40
2018-02-17T11:40:49.610Z,8.40
2018-02-17T11:43:17.121Z,8.40
2018-02-17T11:45:45.402Z,8.50
2018-02-17T11:48:12.942Z,8.50
2018-02-17T11:50:40.458Z,8.50
2018-02-17T11:53:08.010Z,8.50
2018-02-17T11:55:36.295Z,8.20
2018-02-17T11:58:04.656Z,8.20
2018-02-17T12:00:32.282Z,8.20
2018-02-17T12:03:00.711Z,8.30
2018-02-17T12:05:28.541Z,8.30
2018-02-17T12:07:56.056Z,8.40
2018-02-17T12:10:24.414Z,8.20
2018-02-17T12:12:52.177Z,8.20
2018-02-17T12:15:19.667Z,8.20
2018-02-17T12:17:47.196Z,8.20
2018-02-17T12:20:14.851Z,8.20
2018-02-17T12:22:43.569Z,8.30
2018-02-17T12:25:11.560Z,8.40
2018-02-17T12:27:40.018Z,8.40
2018-02-17T12:30:07.538Z,8.40
2018-02-17T12:32:35.920Z,8.40
2018-02-17T12:35:03.581Z,8.30
2018-02-17T12:37:31.957Z,8.10
2018-02-17T12:39:59.463Z,8.00
2018-02-17T12:42:27.009Z,8.00
2018-02-17T12:44:54.567Z,7.90
2018-02-17T12:47:22.215Z,7.80
2018-02-17T12:49:49.717Z,7.80
2018-02-17T12:52:17.246Z,7.80
2018-02-17T12:54:44.837Z,7.90
2018-02-17T12:57:12.362Z,7.90
2018-02-17T12:59:40.650Z,8.00
2018-02-17T13:02:09.233Z,7.80
2018-02-17T13:04:37.535Z,7.80
2018-02-17T13:07:05.960Z,7.70
2018-02-17T13:09:33.604Z,7.70
2018-02-17T13:12:01.169Z,7.60
2018-02-17T13:14:28.878Z,7.60
2018-02-17T13:16:57.165Z,7.30
2018-02-17T13:19:25.443Z,7.30
2018-02-17T13:21:53.728Z,7.30
2018-02-17T13:24:22.102Z,7.30
2018-02-17T13:26:49.613Z,7.30
2018-02-17T13:29:17.215Z,7.30
2018-02-17T13:31:44.752Z,7.30
2018-02-17T13:34:12.397Z,7.50
2018-02-17T13:36:39.894Z,7.40
2018-02-17T13:39:07.434Z,7.40
2018-02-17T13:41:34.971Z,7.40
2018-02-17T13:44:02.505Z,7.30
2018-02-17T13:46:30.166Z,7.20
2018-02-17T13:48:57.730Z,7.20
2018-02-17T13:51:25.246Z,7.30
2018-02-17T13:53:52.778Z,7.30
2018-02-17T13:56:21.052Z,7.40
2018-02-17T13:58:48.827Z,7.30
2018-02-17T14:01:16.354Z,7.50
2018-02-17T14:03:44.004Z,7.50
2018-02-17T14:06:11.544Z,7.50
2018-02-17T14:08:39.064Z,7.40
2018-02-17T14:11:06.894Z,7.30
2018-02-17T14:13:34.404Z,7.20
2018-02-17T14:16:01.914Z,7.10
2018-02-17T14:18:29.461Z,7.00
2018-02-17T14:20:57.741Z,6.90
2018-02-17T14:23:26.058Z,6.80
2018-02-17T14:25:53.614Z,6.80
2018-02-17T14:28:21.113Z,6.80
2018-02-17T14:30:48.638Z,6.80
2018-02-17T14:33:16.273Z,6.90
2018-02-17T14:35:45.370Z,6.90
2018-02-17T14:38:13.659Z,6.90
2018-02-17T14:40:41.949Z,7.00
2018-02-17T14:43:10.257Z,6.90
2018-02-17T14:45:37.786Z,6.90
2018-02-17T14:48:06.133Z,6.80
2018-02-17T14:50:33.620Z,6.80
2018-02-17T14:53:01.921Z,6.60
2018-02-17T14:55:30.239Z,6.50
2018-02-17T14:57:57.961Z,6.50
2018-02-17T15:00:26.234Z,6.50
2018-02-17T15:02:53.876Z,6.50
2018-02-17T15:05:21.389Z,6.60
2018-02-17T15:07:48.911Z,6.50
2018-02-17T15:10:16.472Z,6.60
2018-02-17T15:12:43.978Z,6.60
2018-02-17T15:15:11.496Z,6.40
2018-02-17T15:17:39.065Z,6.30
2018-02-17T15:20:06.566Z,6.30
2018-02-17T15:22:34.110Z,6.30
2018-02-17T15:25:02.439Z,6.30
2018-02-17T15:27:30.032Z,6.30
2018-02-17T15:29:57.555Z,6.30
2018-02-17T15:32:25.089Z,6.30
2018-02-17T15:34:53.364Z,6.30
2018-02-17T15:37:21.651Z,6.40
2018-02-17T15:39:49.923Z,6.30
2018-02-17T15:42:18.199Z,6.20
2018-02-17T15:44:46.666Z,6.20
2018-02-17T15:47:14.172Z,6.20
2018-02-17T15:49:42.897Z,6.10
2018-02-17T15:52:10.470Z,6.10
2018-02-17T15:54:38.663Z,6.20
2018-02-17T15:57:06.186Z,6.20
2018-02-17T15:59:33.738Z,6.10
2018-02-17T16:02:01.290Z,6.10
2018-02-17T16:04:29.911Z,6.00
2018-02-17T16:06:57.478Z,6.00
2018-02-17T16:09:24.993Z,6.00
2018-02-17T16:11:53.267Z,5.80
2018-02-17T16:14:22.743Z,5.70
2018-02-17T16:16:50.364Z,5.70
2018-02-17T16:19:17.905Z,5.60
2018-02-17T16:21:46.201Z,5.60
2018-02-17T16:24:14.479Z,5.70
2018-02-17T16:26:42.781Z,5.70
2018-02-17T16:29:10.356Z,5.60
2018-02-17T16:31:37.890Z,5.60
2018-02-17T16:34:06.190Z,5.70
2018-02-17T16:36:33.709Z,5.70
2018-02-17T16:39:01.225Z,5.70
2018-02-17T16:41:29.099Z,5.60
2018-02-17T16:43:56.592Z,5.60
2018-02-17T16:46:24.112Z,5.60
2018-02-17T16:48:52.203Z,5.60
2018-02-17T16:51:19.710Z,5.50
2018-02-17T16:53:47.233Z,5.50
2018-02-17T16:56:14.826Z,5.50
2018-02-17T16:58:42.322Z,5.50
2018-02-17T17:01:10.702Z,5.50
2018-02-17T17:03:38.994Z,5.50
2018-02-17T17:06:06.600Z,5.50
2018-02-17T17:08:34.137Z,5.50
2018-02-17T17:11:01.654Z,5.50
2018-02-17T17:13:29.138Z,5.40
2018-02-17T17:15:56.671Z,5.30
2018-02-17T17:18:24.189Z,5.40
2018-02-17T17:20:53.058Z,5.40
2018-02-17T17:23:20.576Z,5.40
2018-02-17T17:25:48.092Z,5.40
2018-02-17T17:28:16.407Z,5.30
2018-02-17T17:30:43.949Z,5.30
2018-02-17T17:33:12.486Z,5.20
2018-02-17T17:35:40.548Z,5.20
2018-02-17T17:38:08.079Z,5.20
2018-02-17T17:40:35.605Z,5.20
2018-02-17T17:43:03.347Z,5.30
2018-02-17T17:45:31.172Z,5.40
2018-02-17T17:47:59.644Z,5.40
2018-02-17T17:50:27.131Z,5.40
2018-02-17T17:52:54.691Z,5.40
2018-02-17T17:55:22.237Z,5.30
2018-02-17T17:57:50.617Z,5.30
2018-02-17T18:00:18.984Z,5.30
2018-02-17T18:02:46.578Z,5.30
2018-02-17T18:05:14.882Z,5.30
2018-02-17T18:07:42.463Z,5.30
2018-02-17T18:10:10.006Z,5.30
2018-02-17T18:12:37.537Z,5.40
2018-02-17T18:15:05.042Z,5.40
2018-02-17T18:17:32.611Z,5.50
2018-02-17T18:20:00.121Z,5.50
2018-02-17T18:22:28.424Z,5.50
2018-02-17T18:24:56.737Z,5.50
2018-02-17T18:27:24.564Z,5.40
2018-02-17T18:29:52.071Z,5.50
2018-02-17T18:32:19.587Z,5.40
2018-02-17T18:34:47.973Z,5.30
2018-02-17T18:37:17.781Z,5.20
2018-02-17T18:39:45.291Z,5.20
2018-02-17T18:42:12.826Z,5.20
2018-02-17T18:44:41.163Z,5.20
2018-02-17T18:47:08.766Z,5.20
2018-02-17T18:49:37.116Z,5.10
2018-02-17T18:52:04.819Z,5.10
2018-02-17T18:54:33.098Z,5.10
2018-02-17T18:57:03.884Z,5.10
2018-02-17T18:59:31.397Z,5.10
2018-02-17T19:01:58.932Z,5.10
2018-02-17T19:04:26.458Z,5.10
2018-02-17T19:06:53.982Z,5.20
2018-02-17T19:09:21.503Z,5.20
2018-02-17T19:11:49.031Z,5.20
2018-02-17T19:14:17.338Z,5.20
2018-02-17T19:16:44.858Z,5.20
2018-02-17T19:19:12.381Z,5.20
2018-02-17T19:21:39.893Z,5.10
2018-02-17T19:24:08.168Z,5.00
2018-02-17T19:26:36.438Z,5.00
2018-02-17T19:29:05.476Z,4.90
2018-02-17T19:31:33.064Z,4.90
2018-02-17T19:34:00.595Z,4.90
2018-02-17T19:36:28.144Z,4.90
2018-02-17T19:38:56.477Z,5.00
2018-02-17T19:41:24.440Z,5.00
2018-02-17T19:43:51.982Z,5.00
2018-02-17T19:46:19.530Z,5.00
2018-02-17T19:48:47.831Z,5.00
2018-02-17T19:51:15.352Z,5.00
2018-02-17T19:53:42.903Z,5.00
2018-02-17T19:56:10.962Z,5.00
2018-02-17T19:58:39.409Z,5.00
2018-02-17T20:01:07.689Z,4.90
2018-02-17T20:03:35.288Z,4.90
2018-02-17T20:06:02.803Z,4.90
2018-02-17T20:08:30.410Z,4.90
2018-02-17T20:10:57.921Z,4.90
2018-02-17T20:13:26.522Z,4.90
2018-02-17T20:15:54.813Z,4.90
2018-02-17T20:18:23.098Z,4.90
2018-02-17T20:20:51.824Z,5.00
2018-02-17T20:23:19.409Z,5.00
2018-02-17T20:25:47.744Z,5.00
2018-02-17T20:28:15.269Z,5.00
2018-02-17T20:30:44.750Z,4.90
2018-02-17T20:33:12.331Z,4.90
2018-02-17T20:35:39.827Z,4.80
2018-02-17T20:38:08.106Z,4.80
2018-02-17T20:40:36.367Z,4.90
2018-02-17T20:43:04.681Z,4.80
2018-02-17T20:45:32.278Z,4.80
2018-02-17T20:48:00.034Z,4.90
2018-02-17T20:50:27.569Z,4.90
2018-02-17T20:52:55.906Z,4.80
2018-02-17T20:55:23.430Z,4.80
2018-02-17T20:57:50.980Z,4.70
2018-02-17T21:00:19.286Z,4.70
2018-02-17T21:02:46.859Z,4.70
2018-02-17T21:05:14.354Z,4.70
2018-02-17T21:07:42.448Z,4.70
2018-02-17T21:10:10.465Z,4.60
2018-02-17T21:12:38.021Z,4.60
2018-02-17T21:15:05.532Z,4.60
2018-02-17T21:17:33.036Z,4.60
2018-02-17T21:20:01.337Z,4.60
2018-02-17T21:22:28.872Z,4.60
2018-02-17T21:24:57.842Z,4.50
2018-02-17T21:27:25.365Z,4.50
2018-02-17T21:29:52.881Z,4.40
2018-02-17T21:32:21.214Z,4.50
2018-02-17T21:34:48.766Z,4.50
2018-02-17T21:37:17.743Z,4.60
2018-02-17T21:39:46.133Z,4.60
2018-02-17T21:42:13.709Z,4.60
2018-02-17T21:44:41.253Z,4.70
2018-02-17T21:47:09.517Z,4.70
2018-02-17T21:49:37.042Z,4.60
2018-02-17T21:52:04.550Z,4.70
2018-02-17T21:54:32.915Z,4.70
2018-02-17T21:57:00.406Z,4.60
2018-02-17T21:59:28.713Z,4.60
2018-02-17T22:01:56.292Z,4.60
2018-02-17T22:04:23.847Z,4.50
2018-02-17T22:06:51.347Z,4.50
2018-02-17T22:09:19.740Z,4.40
2018-02-17T22:11:48.083Z,4.30
2018-02-17T22:14:15.682Z,4.30
2018-02-17T22:16:43.406Z,4.30
2018-02-17T22:19:11.005Z,4.20
2018-02-17T22:21:38.732Z,4.20
2018-02-17T22:24:06.253Z,4.10
2018-02-17T22:26:33.767Z,4.10
2018-02-17T22:29:01.292Z,4.10
2018-02-17T22:31:28.810Z,4.10
2018-02-17T22:33:56.322Z,4.00
2018-02-17T22:36:23.863Z,3.90
2018-02-17T22:38:51.481Z,3.90
2018-02-17T22:41:19.234Z,3.90
2018-02-17T22:43:47.524Z,3.90
2018-02-17T22:46:15.043Z,3.90
2018-02-17T22:48:42.566Z,3.80
2018-02-17T22:51:10.135Z,3.80
2018-02-17T22:53:37.622Z,3.80
2018-02-17T22:56:05.161Z,3.80
2018-02-17T22:58:32.702Z,3.90
2018-02-17T23:01:00.976Z,4.00
2018-02-17T23:03:28.515Z,4.00
2018-02-17T23:05:56.001Z,4.00
2018-02-17T23:08:24.285Z,3.80
2018-02-17T23:10:52.549Z,3.80
2018-02-17T23:13:20.865Z,3.90
2018-02-17T23:15:48.393Z,3.80
2018-02-17T23:18:16.695Z,3.90
2018-02-17T23:20:44.400Z,3.80
2018-02-17T23:23:11.938Z,3.80
2018-02-17T23:25:39.449Z,3.80
2018-02-17T23:28:06.986Z,3.90
2018-02-17T23:30:34.628Z,3.80
2018-02-17T23:33:02.239Z,3.80
2018-02-17T23:35:29.766Z,3.80
2018-02-17T23:37:57.272Z,3.80
2018-02-17T23:40:24.797Z,3.80
2018-02-17T23:42:52.299Z,3.70
2018-02-17T23:45:19.802Z,3.70
2018-02-17T23:47:48.193Z,3.70
2018-02-17T23:50:16.235Z,3.70
2018-02-17T23:52:43.747Z,3.80
2018-02-17T23:55:11.323Z,3.80
2018-02-17T23:57:39.830Z,3.70
